ADDS METAR Data INFO
IDs: Format: Raw Decoded Include TAF

Data at: 0057 UTC 22 Oct 2017

KMCD 220035Z AUTO 17009G16KT 10SM CLR 19/05 A3001 RMK AO2 T01910050
KMCD 220014Z AUTO 16009G15KT 10SM CLR 19/05 A3002 RMK AO2 T01910052
KMCD 212355Z AUTO 16009G16KT 10SM CLR 20/05 A3001 RMK AO2 T01970050 10224 20186
KMCD 212334Z AUTO 16009G14KT 10SM CLR 20/06 A3001 RMK AO2 T01950058
KMCD 212314Z AUTO 16007KT 10SM CLR 19/06 A3001 RMK AO2 T01940060
KMCD 212255Z AUTO 14007KT 10SM CLR 19/07 A3000 RMK AO2 T01900067
KMCD 212234Z AUTO 14007KT 10SM CLR 19/08 A3000 RMK AO2 T01870082
KMCD 212214Z AUTO 12006KT 10SM CLR 19/09 A3000 RMK AO2 T01910085
KMCD 212155Z AUTO 13006KT 10SM CLR 20/08 A3000 RMK AO2 T01950083
KMCD 212134Z AUTO 11005KT 10SM CLR 20/08 A3001 RMK AO2 T01970081
KMCD 212115Z AUTO 11006KT 10SM CLR 19/08 A3000 RMK AO2 T01890084
KMCD 212055Z AUTO 10006KT 10SM SCT120 19/09 A3001 RMK AO2 T01880090
KMCD 212034Z AUTO 11007KT 10SM CLR 20/08 A3000 RMK AO2 T02010083
KMCD 212015Z AUTO 10005KT 10SM CLR 20/08 A3001 RMK AO2 T02010076
KMCD 211955Z AUTO 09004KT 10SM SCT120 20/08 A3002 RMK AO2 T01950080
KMCD 211934Z AUTO 00000KT 10SM SCT120 20/08 A3002 RMK AO2 T02000080
KMCD 211915Z AUTO 00000KT 10SM CLR 22/03 A3002 RMK AO2 T02170034
KMCD 211855Z AUTO 00000KT 10SM CLR 22/03 A3002 RMK AO2 T02240030
KMCD 211834Z AUTO 00000KT 10SM CLR 21/05 A3002 RMK AO2 T02140050
KMCD 211815Z AUTO 00000KT 10SM CLR 21/09 A3002 RMK AO2 T02060087
KMCD 211754Z AUTO 00000KT 10SM CLR 20/09 A3002 RMK AO2 T01970093 10205 20157
KMCD 211735Z AUTO 00000KT 10SM CLR 20/09 A3003 RMK AO2 T01950093
KMCD 211715Z AUTO 00000KT 10SM CLR 19/09 A3003 RMK AO2 T01920092
KMCD 211654Z AUTO 00000KT 10SM SCT120 21/07 A3003 RMK AO2 T02050069
KMCD 211635Z AUTO 00000KT 10SM CLR 20/08 A3003 RMK AO2 T01980079
KMCD 211615Z AUTO 00000KT 10SM SCT120 20/09 A3003 RMK AO2 T01950088
KMCD 211554Z AUTO 00000KT 10SM OVC120 19/07 A3003 RMK AO2 T01930071
KMCD 211535Z AUTO 17004KT 10SM OVC120 18/08 A3003 RMK AO2 T01820081
KMCD 211515Z AUTO 17004KT 10SM BKN120 18/08 A3003 RMK AO2 T01800083
KMCD 211454Z AUTO 16007KT 10SM SCT120 18/08 A3003 RMK AO2 T01780080
KMCD 211435Z AUTO 16007KT 10SM CLR 17/08 A3003 RMK AO2 T01710080
KMCD 211414Z AUTO 15008KT 10SM SCT120 17/09 A3003 RMK AO2 T01650085
KMCD 211354Z AUTO 14006KT 10SM SCT120 16/09 A3003 RMK AO2 T01630092
KMCD 211335Z AUTO 18008KT 10SM CLR 17/08 A3005 RMK AO2 T01710084
KMCD 211314Z AUTO 18009KT 10SM CLR 17/09 A3005 RMK AO2 T01670085
KMCD 211255Z AUTO 17007KT 10SM CLR 17/09 A3004 RMK AO2 T01670086
KMCD 211235Z AUTO 17007KT 10SM CLR 17/09 A3004 RMK AO2 T01650086
KMCD 211214Z AUTO 17007KT 10SM CLR 16/09 A3003 RMK AO2 T01570093
KMCD 211155Z AUTO 17006KT 10SM CLR 17/08 A3003 RMK AO2 T01660082 10178 20166
KMCD 211135Z AUTO 20008KT 10SM CLR 17/08 A3004 RMK AO2 T01700083
KMCD 211114Z AUTO 20007KT 10SM CLR 17/08 A3003 RMK AO2 T01700084
KMCD 211055Z AUTO 20006KT 10SM CLR 17/08 A3004 RMK AO2 T01720083
KMCD 211034Z AUTO 19007KT 10SM CLR 17/09 A3004 RMK AO2 T01680090
KMCD 211014Z AUTO 20008KT 10SM CLR 17/09 A3004 RMK AO2 T01710088
KMCD 210954Z AUTO 18008KT 10SM CLR 17/09 A3003 RMK AO2 T01710090
KMCD 210934Z AUTO 19008KT 10SM CLR 17/09 A3004 RMK AO2 T01710090
KMCD 210915Z AUTO 19006KT 10SM CLR 17/09 A3004 RMK AO2 T01700093
KMCD 210854Z AUTO 20007KT 10SM CLR 17/09 A3004 RMK AO2 T01710094
KMCD 210834Z AUTO 20007KT 10SM CLR 17/09 A3003 RMK AO2 T01740094
KMCD 210815Z AUTO 20008KT 10SM CLR 18/10 A3003 RMK AO2 T01750095
KMCD 210754Z AUTO 19008KT 10SM CLR 17/10 A3003 RMK AO2 T01720095
KMCD 210735Z AUTO 19008KT 10SM CLR 17/10 A3003 RMK AO2 T01730095
KMCD 210715Z AUTO 19008KT 10SM CLR 17/10 A3003 RMK AO2 T01730096
KMCD 210654Z AUTO 18008KT 10SM CLR 18/10 A3003 RMK AO2 T01750095
KMCD 210635Z AUTO 18006KT 10SM CLR 17/10 A3003 RMK AO2 T01730096
KMCD 210615Z AUTO 19007KT 10SM CLR 18/10 A3002 RMK AO2 T01750095
KMCD 210554Z AUTO 20007KT 10SM CLR 18/09 A3002 RMK AO2 T01800094 10196 20131
KMCD 210535Z AUTO 20008G14KT 10SM CLR 18/09 A3002 RMK AO2 T01820092
KMCD 210515Z AUTO 20009KT 10SM CLR 18/09 A3002 RMK AO2 T01790091
KMCD 210454Z AUTO 19007KT 10SM CLR 18/09 A3002 RMK AO2 T01790091
KMCD 210435Z AUTO 20007KT 10SM CLR 18/09 A3001 RMK AO2 T01760090
KMCD 210414Z AUTO 21006KT 10SM CLR 18/09 A3002 RMK AO2 T01770090
KMCD 210355Z AUTO 21006KT 10SM CLR 18/09 A3002 RMK AO2 T01770090 402150120
KMCD 210335Z AUTO 21007KT 10SM CLR 18/09 A3002 RMK AO2 T01750090
KMCD 210314Z AUTO 21006KT 10SM CLR 18/09 A3001 RMK AO2 T01750094
KMCD 210255Z AUTO 21006KT 10SM CLR 16/10 A3001 RMK AO2 T01630098
KMCD 210234Z AUTO 21005KT 10SM CLR 14/10 A3001 RMK AO2 T01380103
KMCD 210214Z AUTO 21005KT 10SM CLR 14/10 A3001 RMK AO2 T01350100
KMCD 210155Z AUTO 23003KT 10SM CLR 14/10 A3001 RMK AO2 T01420102
KMCD 210134Z AUTO 20003KT 10SM CLR 15/10 A3000 RMK AO2 T01520101
KMCD 210114Z AUTO 20005KT 10SM CLR 16/10 A3000 RMK AO2 T01600103
KMCD 210055Z AUTO 20005KT 10SM CLR 19/10 A3000 RMK AO2 T01900100
KMCD 210034Z AUTO 19006KT 10SM CLR 19/10 A3000 RMK AO2 T01930100
KMCD 210015Z AUTO 20007KT 10SM CLR 16/11 A3000 RMK AO2 T01580110
KMCD 202354Z AUTO 17005KT 10SM CLR 15/11 A3000 RMK AO2 T01500111 10215 20148
KMCD 202334Z AUTO 00000KT 10SM CLR 15/11 A3000 RMK AO2 T01520110
KMCD 202315Z AUTO 00000KT 10SM CLR 16/11 A3000 RMK AO2 T01570111
KMCD 202254Z AUTO 25004KT 10SM CLR 18/11 A2999 RMK AO2 T01790111
KMCD 202234Z AUTO 24006KT 10SM CLR 18/11 A2999 RMK AO2 T01840112
KMCD 202215Z AUTO 24007KT 10SM CLR 19/11 A2999 RMK AO2 T01880113
KMCD 202154Z AUTO 24007KT 10SM CLR 19/12 A2999 RMK AO2 T01940115
KMCD 202134Z AUTO 25008KT 10SM CLR 20/11 A2999 RMK AO2 T02040111
KMCD 202115Z AUTO 25008G14KT 220V290 10SM CLR 21/11 A2999 RMK AO2 T02090110
KMCD 202054Z AUTO 24006KT 10SM CLR 21/11 A3000 RMK AO2 T02100110
KMCD 202035Z AUTO 24009KT 10SM CLR 21/11 A3000 RMK AO2 T02100109
KMCD 202014Z AUTO 24010G14KT 10SM CLR 21/11 A3000 RMK AO2 T02140107
KMCD 201955Z AUTO 24009G14KT 200V260 10SM CLR 21/11 A3000 RMK AO2 T02120106
KMCD 201935Z AUTO 24008G15KT 200V260 10SM CLR 21/11 A3000 RMK AO2 T02100105
KMCD 201914Z AUTO 24009G19KT 10SM CLR 20/11 A3001 RMK AO2 T02030106
KMCD 201855Z AUTO 25010G18KT 220V280 10SM CLR 20/10 A3002 RMK AO2 T02030104
KMCD 201835Z AUTO 25009G17KT 10SM CLR 21/10 A3002 RMK AO2 T02060101
KMCD 201814Z AUTO 24010G16KT 10SM CLR 20/10 A3002 RMK AO2 T01990103
KMCD 201754Z AUTO 25008G18KT 190V270 10SM CLR 20/10 A3003 RMK AO2 T01970102 10204 20125
KMCD 201735Z AUTO 24008G17KT 200V280 10SM CLR 20/10 A3004 RMK AO2 T01950100
KMCD 201714Z AUTO 25009G14KT 10SM CLR 19/10 A3004 RMK AO2 T01940101
KMCD 201655Z AUTO 24006G14KT 10SM CLR 20/10 A3005 RMK AO2 T01950099
KMCD 201634Z AUTO 00000KT 10SM CLR 20/09 A3005 RMK AO2 T02000086
KMCD 201614Z AUTO 22006KT 10SM CLR 20/08 A3006 RMK AO2 T01980076
KMCD 201555Z AUTO 22005KT 10SM CLR 19/07 A3006 RMK AO2 T01910072
KMCD 201535Z AUTO 21007KT 10SM CLR 18/07 A3006 RMK AO2 T01830069
KMCD 201514Z AUTO 20006KT 10SM CLR 18/06 A3007 RMK AO2 T01760063
KMCD 201455Z AUTO 20008KT 10SM CLR 17/06 A3008 RMK AO2 T01710058
KMCD 201434Z AUTO 20008KT 10SM CLR 16/05 A3007 RMK AO2 T01620047
KMCD 201414Z AUTO 19009G14KT 10SM CLR 16/04 A3008 RMK AO2 T01550044
KMCD 201355Z AUTO 20010KT 10SM CLR 15/04 A3008 RMK AO2 T01470040
KMCD 201334Z AUTO 20010G14KT 10SM CLR 14/03 A3008 RMK AO2 T01420033
KMCD 201314Z AUTO 20009KT 10SM CLR 14/03 A3008 RMK AO2 T01370031